KCPR

Casper-Natrona County International Airport

Airport
ICAO code
KCPR
IATA Code
CPR
Summary
ICAO Region
NAM
ICAO Territory
Location

Casper, Wyoming

Serving
Casper
Elevation
5350 ft
Coordinates
42° 53' 51" N , 106° 27' 51" W
KCC
Airport CFIT
Altimeter Temperature Error Correction
Airport RE
Hot and High Operations
Metar
KCPR 191253Z 03013KT 10SM OVC065 M03/M11 A3025 RMK AO2 SLP267 T10331106

Description

Casper–Natrona County International Airport is a public use airport located 7 nm northwest of the central business district of Casper, a city in Natrona County, Wyoming, USA.

Airport map

Aerial View

SKYbrary Partners:

Safety knowledge contributed by: